Time;durP1;ratioP1;P1;durP2;ratioP2;P2;SDS_P1;SDS_P2;PMS_P1;PMS_P2;Temp;Humidity;BMP_temperature;BMP_pressure;BME280_temperature;BME280_humidity;BME280_pressure;Samples;Min_cycle;Max_cycle;Signal;HPM_P1;HPM_P2
2022/09/14 00:01:05;;;;;;;7.97;5.50;;;;;;;;;;5073829;28;20444;-75
2022/09/14 00:03:51;;;;;;;9.27;5.53;;;;;;;;;;5072384;28;20440;-76
2022/09/14 00:06:17;;;;;;;9.90;6.03;;;;;;;;;;5072332;28;20433;-75
2022/09/14 00:08:44;;;;;;;9.03;5.57;;;;;;;;;;5072241;28;20831;-75
2022/09/14 00:11:13;;;;;;;9.13;6.63;;;;;;;;;;5071997;28;20564;-75
2022/09/14 00:13:40;;;;;;;6.80;6.13;;;;;;;;;;5088844;28;20466;-76
2022/09/14 00:16:11;;;;;;;6.80;5.90;;;;;;;;;;5088861;28;20482;-76
2022/09/14 00:18:38;;;;;;;7.00;5.83;;;;;;;;;;5071957;28;20451;-76
2022/09/14 00:21:05;;;;;;;6.57;6.07;;;;;;;;;;5078128;28;20802;-76
2022/09/14 00:23:36;;;;;;;7.47;6.70;;;;;;;;;;5092492;28;20451;-76
2022/09/14 00:26:07;;;;;;;6.57;5.80;;;;;;;;;;5092184;28;20539;-76
2022/09/14 00:28:37;;;;;;;9.40;5.90;;;;;;;;;;5078042;28;20456;-76
2022/09/14 00:31:05;;;;;;;6.10;5.50;;;;;;;;;;5071915;28;20455;-76
2022/09/14 00:33:33;;;;;;;7.07;5.97;;;;;;;;;;5088923;28;20772;-76
2022/09/14 00:36:10;;;;;;;6.10;5.60;;;;;;;;;;5063323;28;20794;-76
2022/09/14 00:38:36;;;;;;;6.00;5.40;;;;;;;;;;5075805;28;20447;-75
2022/09/14 00:41:05;;;;;;;7.40;6.80;;;;;;;;;;5051867;28;20457;-75
2022/09/14 00:43:32;;;;;;;6.40;5.33;;;;;;;;;;5068496;28;20441;-75
2022/09/14 00:46:00;;;;;;;7.43;6.63;;;;;;;;;;5072036;28;20827;-76
2022/09/14 00:48:28;;;;;;;6.27;5.67;;;;;;;;;;5071941;28;20862;-76
2022/09/14 00:50:55;;;;;;;7.37;6.67;;;;;;;;;;5084180;28;20471;-75
2022/09/14 00:53:21;;;;;;;7.93;7.10;;;;;;;;;;5091919;28;20454;-75
2022/09/14 00:55:48;;;;;;;9.77;6.13;;;;;;;;;;5093123;28;20416;-75
2022/09/14 00:58:14;;;;;;;6.67;6.00;;;;;;;;;;5074579;28;20435;-75
2022/09/14 01:00:41;;;;;;;7.60;6.40;;;;;;;;;;5091425;28;20463;-75
2022/09/14 01:03:07;;;;;;;6.10;5.60;;;;;;;;;;5074301;28;20471;-75
2022/09/14 01:05:41;;;;;;;6.73;5.93;;;;;;;;;;5092769;28;20420;-75
2022/09/14 01:08:26;;;;;;;7.57;6.70;;;;;;;;;;5074627;28;20438;-75
2022/09/14 01:10:56;;;;;;;6.87;5.87;;;;;;;;;;5090971;28;20930;-75
2022/09/14 01:13:31;;;;;;;8.00;7.20;;;;;;;;;;5091128;28;20440;-75
2022/09/14 01:16:10;;;;;;;7.77;6.97;;;;;;;;;;5074199;28;20438;-75
2022/09/14 01:18:40;;;;;;;6.60;6.00;;;;;;;;;;5091238;28;20480;-75
2022/09/14 01:21:12;;;;;;;7.47;6.70;;;;;;;;;;5091168;28;21074;-75
2022/09/14 01:23:46;;;;;;;7.07;6.37;;;;;;;;;;5090954;28;20419;-75
2022/09/14 01:26:23;;;;;;;7.40;6.70;;;;;;;;;;5091365;28;20927;-75
2022/09/14 01:29:10;;;;;;;7.57;6.87;;;;;;;;;;5053031;28;20457;-75
2022/09/14 01:31:36;;;;;;;11.87;7.33;;;;;;;;;;5064027;28;20551;-75
2022/09/14 01:34:15;;;;;;;13.43;8.00;;;;;;;;;;5070808;28;20854;-75
2022/09/14 01:36:44;;;;;;;7.50;6.90;;;;;;;;;;5069617;28;20436;-75
2022/09/14 01:39:11;;;;;;;7.43;6.80;;;;;;;;;;5073915;28;20557;-76
2022/09/14 01:41:38;;;;;;;7.20;6.50;;;;;;;;;;5073733;28;20460;-75
2022/09/14 01:44:08;;;;;;;9.23;6.60;;;;;;;;;;5090642;28;20431;-75
2022/09/14 01:46:38;;;;;;;8.07;7.23;;;;;;;;;;5058125;28;20983;-75
2022/09/14 01:49:20;;;;;;;11.03;6.70;;;;;;;;;;5087090;28;20466;-75
2022/09/14 01:51:59;;;;;;;6.73;6.13;;;;;;;;;;5087210;28;20563;-75
2022/09/14 01:54:34;;;;;;;7.43;6.83;;;;;;;;;;5070577;28;20428;-77
2022/09/14 01:57:11;;;;;;;8.40;7.70;;;;;;;;;;5087927;28;20422;-78
2022/09/14 01:59:39;;;;;;;8.50;7.30;;;;;;;;;;5088306;28;20404;-78
2022/09/14 02:02:15;;;;;;;8.30;7.60;;;;;;;;;;5072247;28;20436;-77
2022/09/14 02:04:46;;;;;;;8.27;7.47;;;;;;;;;;5071339;28;20432;-78
2022/09/14 02:07:13;;;;;;;10.37;7.47;;;;;;;;;;5054653;28;20421;-77
2022/09/14 02:09:39;;;;;;;8.77;7.97;;;;;;;;;;5070872;28;20461;-77
2022/09/14 02:12:06;;;;;;;8.40;7.70;;;;;;;;;;5070925;28;20441;-77
2022/09/14 02:14:33;;;;;;;10.00;6.77;;;;;;;;;;5072177;28;20409;-77
2022/09/14 02:16:59;;;;;;;8.10;7.40;;;;;;;;;;5054034;28;20428;-77
2022/09/14 02:19:30;;;;;;;8.27;7.43;;;;;;;;;;5087778;28;20983;-77
2022/09/14 02:21:56;;;;;;;7.73;7.00;;;;;;;;;;5072131;28;20848;-78
2022/09/14 02:24:22;;;;;;;8.40;7.60;;;;;;;;;;5072543;28;20435;-75
2022/09/14 02:26:51;;;;;;;8.83;8.10;;;;;;;;;;5053640;28;20437;-75
2022/09/14 02:29:18;;;;;;;12.00;7.27;;;;;;;;;;5069988;28;20468;-75
2022/09/14 02:32:02;;;;;;;7.53;6.70;;;;;;;;;;5070770;28;20456;-75
2022/09/14 02:34:33;;;;;;;8.57;6.90;;;;;;;;;;5057560;28;20437;-75
2022/09/14 02:37:03;;;;;;;8.27;7.57;;;;;;;;;;5073886;28;20938;-75
2022/09/14 02:39:36;;;;;;;7.47;6.80;;;;;;;;;;5090717;28;20791;-75
2022/09/14 02:42:09;;;;;;;8.33;7.17;;;;;;;;;;5057117;28;20469;-75
2022/09/14 02:44:54;;;;;;;8.67;7.87;;;;;;;;;;5074894;28;20425;-75
2022/09/14 02:47:39;;;;;;;8.53;7.73;;;;;;;;;;5058978;28;20433;-75
2022/09/14 02:50:15;;;;;;;8.40;7.77;;;;;;;;;;5071116;28;20467;-76
2022/09/14 02:52:50;;;;;;;10.77;9.77;;;;;;;;;;5073461;28;20447;-75
2022/09/14 02:55:21;;;;;;;10.17;9.00;;;;;;;;;;5073604;28;20432;-76
2022/09/14 02:58:05;;;;;;;9.77;8.83;;;;;;;;;;5073316;28;20486;-75
2022/09/14 03:00:35;;;;;;;13.40;8.87;;;;;;;;;;5073354;28;20451;-75
2022/09/14 03:03:03;;;;;;;10.10;9.20;;;;;;;;;;5090282;28;20479;-75
2022/09/14 03:05:30;;;;;;;11.70;9.30;;;;;;;;;;5073203;28;20436;-76
2022/09/14 03:07:56;;;;;;;10.47;9.47;;;;;;;;;;5073348;28;20459;-76
2022/09/14 03:10:23;;;;;;;9.40;8.57;;;;;;;;;;5072832;28;20953;-76
2022/09/14 03:12:49;;;;;;;10.40;9.40;;;;;;;;;;5073028;28;20435;-75
2022/09/14 03:15:16;;;;;;;10.03;9.20;;;;;;;;;;5090050;28;20428;-75
2022/09/14 03:17:49;;;;;;;9.00;7.30;;;;;;;;;;5089658;28;20435;-76
2022/09/14 03:20:20;;;;;;;11.40;10.40;;;;;;;;;;5072770;28;20444;-75
2022/09/14 03:22:47;;;;;;;21.60;10.40;;;;;;;;;;5073222;28;20424;-75
2022/09/14 03:25:13;;;;;;;10.77;9.00;;;;;;;;;;5072639;28;20783;-75
2022/09/14 03:27:40;;;;;;;11.13;10.23;;;;;;;;;;5066245;28;20437;-75
2022/09/14 03:30:07;;;;;;;9.43;8.53;;;;;;;;;;5067461;28;20460;-75
2022/09/14 03:32:34;;;;;;;9.93;9.20;;;;;;;;;;5043145;28;20447;-75
2022/09/14 03:35:00;;;;;;;13.67;10.20;;;;;;;;;;5072759;28;20424;-75
2022/09/14 03:37:27;;;;;;;11.13;10.23;;;;;;;;;;5089507;28;20439;-75
2022/09/14 03:39:53;;;;;;;10.10;9.30;;;;;;;;;;5055951;28;20945;-75
2022/09/14 03:42:20;;;;;;;13.73;9.63;;;;;;;;;;5079560;28;20521;-75
2022/09/14 03:44:46;;;;;;;14.07;9.73;;;;;;;;;;5074071;28;20780;-75
2022/09/14 03:47:13;;;;;;;12.37;11.07;;;;;;;;;;5059976;28;20428;-75
2022/09/14 03:49:39;;;;;;;10.73;9.60;;;;;;;;;;5073553;28;20457;-75
2022/09/14 03:52:06;;;;;;;13.93;8.90;;;;;;;;;;5073508;28;20436;-75
2022/09/14 03:54:33;;;;;;;10.20;9.10;;;;;;;;;;5085527;28;20438;-75
2022/09/14 03:57:00;;;;;;;9.73;8.73;;;;;;;;;;5073602;28;20420;-75
2022/09/14 03:59:26;;;;;;;12.30;11.10;;;;;;;;;;5054064;28;20443;-75
2022/09/14 04:01:52;;;;;;;11.00;9.87;;;;;;;;;;5072120;28;20503;-76
2022/09/14 04:04:19;;;;;;;11.90;10.57;;;;;;;;;;5074828;28;20814;-76
2022/09/14 04:06:46;;;;;;;11.50;10.50;;;;;;;;;;5082678;28;20521;-76
2022/09/14 04:09:12;;;;;;;12.50;10.53;;;;;;;;;;5082041;28;20440;-75
2022/09/14 04:11:39;;;;;;;10.10;9.20;;;;;;;;;;5072248;28;20461;-75
2022/09/14 04:14:07;;;;;;;9.67;8.43;;;;;;;;;;5088863;28;20453;-75
2022/09/14 04:16:33;;;;;;;10.20;9.20;;;;;;;;;;5071795;28;20428;-76
2022/09/14 04:19:00;;;;;;;11.07;10.17;;;;;;;;;;5073450;28;20975;-76
2022/09/14 04:21:26;;;;;;;10.50;9.60;;;;;;;;;;5071660;28;20475;-76
2022/09/14 04:23:54;;;;;;;10.80;9.80;;;;;;;;;;5057709;28;20436;-76
2022/09/14 04:26:41;;;;;;;11.60;10.60;;;;;;;;;;5092102;28;20832;-76
2022/09/14 04:29:09;;;;;;;10.57;9.57;;;;;;;;;;5093181;28;20428;-76
2022/09/14 04:31:35;;;;;;;11.57;10.57;;;;;;;;;;5075134;28;20456;-75
2022/09/14 04:34:02;;;;;;;11.03;10.00;;;;;;;;;;5091879;28;20539;-76
2022/09/14 04:36:29;;;;;;;10.50;9.53;;;;;;;;;;5075022;28;20952;-76
2022/09/14 04:39:01;;;;;;;11.83;10.73;;;;;;;;;;5075093;28;20467;-76
2022/09/14 04:41:28;;;;;;;11.10;10.00;;;;;;;;;;5074905;28;20470;-76
2022/09/14 04:43:55;;;;;;;12.20;11.00;;;;;;;;;;5084306;28;20444;-76
2022/09/14 04:46:22;;;;;;;13.73;12.43;;;;;;;;;;5071493;28;20490;-76
2022/09/14 04:48:49;;;;;;;13.30;12.00;;;;;;;;;;5072765;28;20434;-76
2022/09/14 04:51:20;;;;;;;13.87;12.57;;;;;;;;;;5072574;28;20468;-76
2022/09/14 04:53:49;;;;;;;15.90;12.90;;;;;;;;;;5079335;28;20434;-76
2022/09/14 04:56:16;;;;;;;15.93;14.43;;;;;;;;;;5059194;28;20428;-76
2022/09/14 04:58:47;;;;;;;13.60;12.40;;;;;;;;;;5070700;28;20433;-76
2022/09/14 05:01:36;;;;;;;14.07;12.63;;;;;;;;;;5071252;28;20982;-76
2022/09/14 05:04:03;;;;;;;13.67;12.17;;;;;;;;;;5057953;28;20437;-76
2022/09/14 05:06:31;;;;;;;12.83;11.53;;;;;;;;;;5091414;28;20427;-75
2022/09/14 05:08:58;;;;;;;14.17;12.87;;;;;;;;;;5091481;28;20435;-76
2022/09/14 05:11:29;;;;;;;13.87;12.00;;;;;;;;;;5091104;28;20541;-76
2022/09/14 05:13:56;;;;;;;13.90;12.50;;;;;;;;;;5091362;28;20430;-76
2022/09/14 05:16:27;;;;;;;13.23;12.10;;;;;;;;;;5092505;28;20431;-76
2022/09/14 05:18:54;;;;;;;14.63;13.33;;;;;;;;;;5092904;28;20436;-76
2022/09/14 05:21:21;;;;;;;13.30;12.10;;;;;;;;;;5094957;28;20978;-76
2022/09/14 05:23:52;;;;;;;11.27;10.23;;;;;;;;;;5091283;28;20438;-75
2022/09/14 05:26:18;;;;;;;14.33;12.87;;;;;;;;;;5091005;28;20473;-76
2022/09/14 05:28:48;;;;;;;12.40;11.27;;;;;;;;;;5090479;28;20427;-76
2022/09/14 05:31:15;;;;;;;12.87;11.70;;;;;;;;;;5073920;28;20486;-76
2022/09/14 05:33:42;;;;;;;13.47;12.27;;;;;;;;;;5073815;28;20434;-76
2022/09/14 05:36:09;;;;;;;15.07;13.70;;;;;;;;;;5090807;28;20482;-76
2022/09/14 05:38:36;;;;;;;14.50;13.10;;;;;;;;;;5092077;28;20427;-76
2022/09/14 05:41:04;;;;;;;14.80;13.40;;;;;;;;;;5090404;28;20456;-76
2022/09/14 05:43:30;;;;;;;14.57;13.07;;;;;;;;;;5068888;28;20432;-76
2022/09/14 05:46:08;;;;;;;13.90;12.60;;;;;;;;;;5055445;28;20937;-75
2022/09/14 05:48:36;;;;;;;14.00;12.77;;;;;;;;;;5072673;28;20483;-76
2022/09/14 05:51:04;;;;;;;14.50;12.77;;;;;;;;;;5070433;28;20475;-76
2022/09/14 05:53:30;;;;;;;13.57;12.37;;;;;;;;;;5062825;28;20450;-75
2022/09/14 05:56:07;;;;;;;15.67;14.10;;;;;;;;;;5080193;28;20905;-77
2022/09/14 05:58:34;;;;;;;13.80;12.60;;;;;;;;;;5054865;28;20425;-77
2022/09/14 06:01:14;;;;;;;16.10;14.47;;;;;;;;;;5085632;28;20457;-77
2022/09/14 06:03:41;;;;;;;16.00;14.47;;;;;;;;;;5077730;28;20418;-77
2022/09/14 06:06:08;;;;;;;13.87;12.60;;;;;;;;;;5084627;28;20943;-77
2022/09/14 06:08:36;;;;;;;14.13;12.73;;;;;;;;;;5074357;28;20447;-77
2022/09/14 06:11:06;;;;;;;14.43;13.13;;;;;;;;;;5072832;28;21018;-76
2022/09/14 06:13:33;;;;;;;14.63;13.23;;;;;;;;;;5076964;28;20419;-76
2022/09/14 06:16:00;;;;;;;13.90;12.60;;;;;;;;;;5056511;28;20940;-74
2022/09/14 06:18:28;;;;;;;14.90;13.53;;;;;;;;;;5074132;28;20440;-74
2022/09/14 06:20:55;;;;;;;15.27;13.67;;;;;;;;;;5074013;28;20510;-74
2022/09/14 06:23:22;;;;;;;15.10;13.60;;;;;;;;;;5074307;28;20940;-74
2022/09/14 06:25:51;;;;;;;14.57;13.07;;;;;;;;;;5073851;28;20444;-74
2022/09/14 06:28:17;;;;;;;16.07;14.50;;;;;;;;;;5091107;28;20447;-74
2022/09/14 06:30:44;;;;;;;16.97;15.37;;;;;;;;;;5073803;28;20475;-74
2022/09/14 06:33:10;;;;;;;15.60;14.10;;;;;;;;;;5073976;28;20437;-74
2022/09/14 06:35:37;;;;;;;16.00;14.60;;;;;;;;;;5073653;28;20429;-74
2022/09/14 06:38:03;;;;;;;15.80;14.40;;;;;;;;;;5074060;28;20925;-75
2022/09/14 06:40:30;;;;;;;15.87;14.27;;;;;;;;;;5073554;28;20979;-74
2022/09/14 06:43:01;;;;;;;15.77;14.37;;;;;;;;;;5073795;28;20440;-74
2022/09/14 06:45:31;;;;;;;19.90;15.53;;;;;;;;;;5067294;28;20440;-74
2022/09/14 06:47:57;;;;;;;15.53;14.03;;;;;;;;;;5068593;28;20427;-74
2022/09/14 06:50:24;;;;;;;16.40;14.70;;;;;;;;;;5073171;28;20479;-74
2022/09/14 06:52:50;;;;;;;15.70;14.27;;;;;;;;;;5073366;28;20887;-74
2022/09/14 06:55:17;;;;;;;16.37;14.87;;;;;;;;;;5067240;28;20423;-74
2022/09/14 06:57:45;;;;;;;15.20;13.60;;;;;;;;;;5093757;28;20438;-74
2022/09/14 07:00:12;;;;;;;16.67;15.07;;;;;;;;;;5093404;28;20951;-74
2022/09/14 07:02:39;;;;;;;15.03;13.70;;;;;;;;;;5093308;28;20439;-74
2022/09/14 07:05:06;;;;;;;18.23;16.43;;;;;;;;;;5093731;28;20435;-75
2022/09/14 07:07:33;;;;;;;17.63;15.87;;;;;;;;;;5093508;28;20427;-74
2022/09/14 07:09:59;;;;;;;16.87;15.30;;;;;;;;;;5093299;28;20995;-74
2022/09/14 07:12:26;;;;;;;17.13;15.27;;;;;;;;;;5076581;28;20431;-74
2022/09/14 07:14:53;;;;;;;16.17;14.57;;;;;;;;;;5076582;28;20436;-74
2022/09/14 07:17:19;;;;;;;16.47;14.90;;;;;;;;;;5076656;28;20438;-74
2022/09/14 07:19:46;;;;;;;17.20;15.70;;;;;;;;;;5095046;28;20431;-74
2022/09/14 07:22:12;;;;;;;17.23;15.40;;;;;;;;;;5094723;28;20466;-74
2022/09/14 07:24:39;;;;;;;18.43;16.23;;;;;;;;;;5099011;28;20504;-74
2022/09/14 07:27:05;;;;;;;16.50;15.03;;;;;;;;;;5089290;28;20932;-74
2022/09/14 07:29:32;;;;;;;17.27;15.67;;;;;;;;;;5073038;28;20924;-74
2022/09/14 07:31:58;;;;;;;15.80;14.40;;;;;;;;;;5089145;28;20472;-74
2022/09/14 07:34:25;;;;;;;16.07;14.57;;;;;;;;;;5092882;28;20438;-74
2022/09/14 07:36:51;;;;;;;14.40;13.07;;;;;;;;;;5095658;28;20428;-74
2022/09/14 07:39:18;;;;;;;14.57;13.27;;;;;;;;;;5094488;28;20434;-74
2022/09/14 07:41:44;;;;;;;13.30;12.20;;;;;;;;;;5095949;28;20459;-74
2022/09/14 07:44:14;;;;;;;14.80;13.30;;;;;;;;;;5093127;28;20513;-74
2022/09/14 07:46:42;;;;;;;14.80;13.50;;;;;;;;;;5062452;28;20974;-74
2022/09/14 07:49:09;;;;;;;15.43;13.83;;;;;;;;;;5055759;28;20440;-74
2022/09/14 07:51:36;;;;;;;16.80;15.20;;;;;;;;;;5055779;28;20559;-75
2022/09/14 07:54:04;;;;;;;17.10;15.53;;;;;;;;;;5082631;28;20436;-75
2022/09/14 07:56:30;;;;;;;15.73;14.17;;;;;;;;;;5075310;28;20519;-75
2022/09/14 07:58:57;;;;;;;14.37;12.97;;;;;;;;;;5055965;28;20424;-75
2022/09/14 08:01:45;;;;;;;17.33;15.70;;;;;;;;;;5072648;28;20454;-75
2022/09/14 08:04:12;;;;;;;15.83;14.43;;;;;;;;;;5073809;28;20432;-75
2022/09/14 08:06:39;;;;;;;16.20;14.70;;;;;;;;;;5074032;28;20431;-75
2022/09/14 08:09:07;;;;;;;14.27;12.97;;;;;;;;;;5077028;28;20424;-75
2022/09/14 08:11:34;;;;;;;16.07;14.47;;;;;;;;;;5073537;28;20460;-75
2022/09/14 08:14:02;;;;;;;14.10;12.73;;;;;;;;;;5074716;28;20978;-75
2022/09/14 08:16:30;;;;;;;14.93;13.53;;;;;;;;;;5092622;28;20479;-75
2022/09/14 08:19:01;;;;;;;16.40;14.57;;;;;;;;;;5093793;28;20931;-75
2022/09/14 08:21:28;;;;;;;15.60;13.93;;;;;;;;;;5092513;28;20457;-75
2022/09/14 08:23:56;;;;;;;15.90;14.23;;;;;;;;;;5092527;28;20466;-75
2022/09/14 08:26:23;;;;;;;14.93;13.43;;;;;;;;;;5092431;28;20433;-75
2022/09/14 08:28:50;;;;;;;14.50;13.20;;;;;;;;;;5093999;28;20416;-75
2022/09/14 08:31:19;;;;;;;14.87;13.47;;;;;;;;;;5093580;28;20544;-75
2022/09/14 08:33:50;;;;;;;13.67;12.47;;;;;;;;;;5093291;28;20927;-75
2022/09/14 08:36:18;;;;;;;14.07;12.87;;;;;;;;;;5094219;28;20465;-75
2022/09/14 08:38:45;;;;;;;13.73;12.57;;;;;;;;;;5095083;28;20412;-75
2022/09/14 08:41:23;;;;;;;13.17;11.97;;;;;;;;;;5093553;28;20867;-75
2022/09/14 08:43:50;;;;;;;10.60;9.50;;;;;;;;;;5093125;28;20935;-75
2022/09/14 08:46:25;;;;;;;11.90;10.80;;;;;;;;;;5068266;28;20494;-75
2022/09/14 08:48:51;;;;;;;13.03;11.70;;;;;;;;;;5062516;28;20853;-75
2022/09/14 08:51:18;;;;;;;12.03;10.83;;;;;;;;;;5075014;28;20896;-75
2022/09/14 08:53:44;;;;;;;11.03;9.93;;;;;;;;;;5079757;28;20412;-75
2022/09/14 08:56:11;;;;;;;10.67;9.57;;;;;;;;;;5078684;28;20482;-74
2022/09/14 08:58:52;;;;;;;10.60;9.60;;;;;;;;;;5072997;28;20432;-74
2022/09/14 09:01:27;;;;;;;10.33;9.43;;;;;;;;;;5071467;28;20441;-74
2022/09/14 09:04:00;;;;;;;11.00;10.00;;;;;;;;;;5071272;28;20470;-74
2022/09/14 09:06:26;;;;;;;8.63;7.87;;;;;;;;;;5072914;28;20994;-74
2022/09/14 09:08:56;;;;;;;10.60;9.60;;;;;;;;;;5072187;28;20429;-74
2022/09/14 09:11:25;;;;;;;8.87;8.10;;;;;;;;;;5072159;28;20538;-74
2022/09/14 09:13:51;;;;;;;9.60;8.70;;;;;;;;;;5087961;28;20456;-74
2022/09/14 09:16:20;;;;;;;8.87;8.03;;;;;;;;;;5072707;28;20432;-74
2022/09/14 09:18:58;;;;;;;10.20;9.37;;;;;;;;;;5072898;28;20428;-74
2022/09/14 09:21:27;;;;;;;9.30;8.50;;;;;;;;;;5087786;28;21020;-74
2022/09/14 09:23:57;;;;;;;11.50;8.73;;;;;;;;;;5069731;28;20453;-74
2022/09/14 09:26:26;;;;;;;9.17;8.47;;;;;;;;;;5080902;28;20503;-75
2022/09/14 09:29:00;;;;;;;9.40;8.50;;;;;;;;;;5068109;28;20444;-75
2022/09/14 09:31:32;;;;;;;8.40;7.70;;;;;;;;;;5071022;28;20477;-74
2022/09/14 09:34:26;;;;;;;8.60;7.90;;;;;;;;;;5059207;28;20817;-75
2022/09/14 09:37:05;;;;;;;9.27;8.20;;;;;;;;;;5059045;28;20801;-75
2022/09/14 09:39:32;;;;;;;10.13;9.23;;;;;;;;;;5073980;28;20526;-75
2022/09/14 09:42:19;;;;;;;8.07;7.37;;;;;;;;;;5071468;28;20452;-75
2022/09/14 09:45:06;;;;;;;8.90;8.17;;;;;;;;;;5060734;28;20523;-76
2022/09/14 09:47:32;;;;;;;8.63;7.90;;;;;;;;;;5056392;28;20436;-76
2022/09/14 09:50:01;;;;;;;8.80;8.00;;;;;;;;;;5075375;28;20440;-76
2022/09/14 09:52:28;;;;;;;15.93;8.77;;;;;;;;;;5081834;28;20820;-76
2022/09/14 09:54:55;;;;;;;9.90;8.90;;;;;;;;;;5074318;28;20536;-76
2022/09/14 09:57:26;;;;;;;9.50;8.57;;;;;;;;;;5052434;28;20437;-76
2022/09/14 10:00:07;;;;;;;14.77;13.30;;;;;;;;;;5078139;28;20543;-75
2022/09/14 10:02:37;;;;;;;14.00;12.80;;;;;;;;;;5077200;28;20436;-76
2022/09/14 10:05:16;;;;;;;10.80;9.90;;;;;;;;;;5068188;28;20437;-76
2022/09/14 10:07:49;;;;;;;15.60;14.10;;;;;;;;;;5077598;28;20870;-76
2022/09/14 10:10:17;;;;;;;13.60;11.93;;;;;;;;;;5070380;28;20437;-76
2022/09/14 10:12:45;;;;;;;9.10;8.30;;;;;;;;;;5059741;28;20454;-75
2022/09/14 10:15:18;;;;;;;9.53;8.70;;;;;;;;;;5053957;28;20437;-75
2022/09/14 10:18:00;;;;;;;8.70;7.90;;;;;;;;;;5070344;28;20525;-75
2022/09/14 10:20:26;;;;;;;8.03;7.43;;;;;;;;;;5052262;28;20470;-74
2022/09/14 10:22:53;;;;;;;6.97;6.37;;;;;;;;;;5071780;28;20521;-74
2022/09/14 10:25:24;;;;;;;9.97;8.80;;;;;;;;;;5070204;28;20444;-74
2022/09/14 10:27:53;;;;;;;18.20;16.40;;;;;;;;;;5070523;28;20436;-75
2022/09/14 10:30:20;;;;;;;13.60;12.40;;;;;;;;;;5070256;28;20555;-76
2022/09/14 10:32:59;;;;;;;12.03;10.93;;;;;;;;;;5070413;28;20472;-75
2022/09/14 10:35:40;;;;;;;11.77;10.13;;;;;;;;;;5070405;28;20889;-75
2022/09/14 10:38:33;;;;;;;13.60;12.50;;;;;;;;;;5076932;28;20513;-76
2022/09/14 10:41:08;;;;;;;8.80;8.10;;;;;;;;;;5060014;28;20464;-75
2022/09/14 10:43:34;;;;;;;9.93;9.03;;;;;;;;;;5090772;28;20428;-74
2022/09/14 10:46:03;;;;;;;10.30;9.60;;;;;;;;;;5063626;28;20490;-76
2022/09/14 10:48:29;;;;;;;9.43;8.63;;;;;;;;;;5070567;28;20424;-76
2022/09/14 10:51:15;;;;;;;11.43;8.03;;;;;;;;;;5053214;28;20720;-77
2022/09/14 10:53:53;;;;;;;8.40;7.70;;;;;;;;;;5075908;28;20440;-77
2022/09/14 10:56:25;;;;;;;7.87;7.07;;;;;;;;;;5094071;28;20455;-77
2022/09/14 10:58:51;;;;;;;8.70;7.13;;;;;;;;;;5053965;28;20425;-77
2022/09/14 11:01:30;;;;;;;9.47;8.67;;;;;;;;;;5082108;28;20451;-77
2022/09/14 11:03:57;;;;;;;9.07;8.37;;;;;;;;;;5095477;28;20456;-77
2022/09/14 11:06:35;;;;;;;8.87;7.97;;;;;;;;;;5078715;28;20432;-77
2022/09/14 11:09:09;;;;;;;6.80;6.20;;;;;;;;;;5074230;28;20459;-78
2022/09/14 11:11:48;;;;;;;5.63;5.23;;;;;;;;;;5059410;28;20476;-78
2022/09/14 11:14:24;;;;;;;6.10;5.60;;;;;;;;;;5067437;28;20523;-78
2022/09/14 11:17:09;;;;;;;6.33;5.83;;;;;;;;;;5073545;28;20830;-77
2022/09/14 11:20:01;;;;;;;6.07;5.67;;;;;;;;;;5074195;28;20444;-78
2022/09/14 11:22:47;;;;;;;4.60;4.20;;;;;;;;;;5071611;28;20535;-77
2022/09/14 11:25:22;;;;;;;5.20;4.27;;;;;;;;;;5056819;28;20428;-78
2022/09/14 11:27:51;;;;;;;4.63;4.23;;;;;;;;;;5074168;28;20439;-78
2022/09/14 11:30:19;;;;;;;4.60;4.30;;;;;;;;;;5073439;28;20437;-77
2022/09/14 11:33:02;;;;;;;4.83;4.40;;;;;;;;;;5072988;28;20465;-77
2022/09/14 11:35:31;;;;;;;5.23;4.83;;;;;;;;;;5090152;28;20431;-78
2022/09/14 11:38:00;;;;;;;5.07;4.57;;;;;;;;;;5088692;28;20896;-78
2022/09/14 11:40:33;;;;;;;4.60;4.20;;;;;;;;;;5090969;28;20572;-78
2022/09/14 11:42:59;;;;;;;6.67;6.03;;;;;;;;;;5073377;28;20555;-78
2022/09/14 11:45:26;;;;;;;7.90;4.60;;;;;;;;;;5076318;28;20451;-78
2022/09/14 11:48:05;;;;;;;7.80;7.20;;;;;;;;;;5057772;28;20433;-78
2022/09/14 11:50:52;;;;;;;6.00;5.43;;;;;;;;;;5071476;28;20461;-77
2022/09/14 11:53:19;;;;;;;5.53;5.03;;;;;;;;;;5052761;28;20465;-75
2022/09/14 11:55:47;;;;;;;7.87;7.27;;;;;;;;;;5085389;28;20427;-76
2022/09/14 11:58:32;;;;;;;7.50;6.90;;;;;;;;;;5059877;28;20925;-75
2022/09/14 12:00:59;;;;;;;9.50;7.27;;;;;;;;;;5069926;28;20447;-75
2022/09/14 12:03:50;;;;;;;9.40;8.70;;;;;;;;;;5080185;28;20467;-75
2022/09/14 12:06:29;;;;;;;10.37;9.53;;;;;;;;;;5082264;28;20448;-78
2022/09/14 12:09:11;;;;;;;7.90;7.20;;;;;;;;;;5091926;28;20513;-78
2022/09/14 12:11:38;;;;;;;8.83;8.03;;;;;;;;;;5062493;28;20999;-78
2022/09/14 12:14:23;;;;;;;7.70;7.10;;;;;;;;;;5081396;28;20432;-75
2022/09/14 12:17:08;;;;;;;9.47;7.97;;;;;;;;;;5062285;28;20522;-75
2022/09/14 12:19:58;;;;;;;8.70;7.97;;;;;;;;;;5081390;28;20797;-75
2022/09/14 12:22:31;;;;;;;7.10;6.50;;;;;;;;;;5062870;28;20836;-76
2022/09/14 12:25:07;;;;;;;8.73;7.50;;;;;;;;;;5084425;28;20507;-76
2022/09/14 12:27:35;;;;;;;7.10;6.50;;;;;;;;;;5085003;28;20777;-75
2022/09/14 12:30:20;;;;;;;8.40;7.60;;;;;;;;;;5079945;28;20438;-75
2022/09/14 12:32:47;;;;;;;9.33;8.43;;;;;;;;;;5092027;28;20508;-76
2022/09/14 12:35:33;;;;;;;8.37;7.53;;;;;;;;;;5083495;28;20452;-76
2022/09/14 12:38:19;;;;;;;8.87;8.07;;;;;;;;;;5071927;28;20425;-76
2022/09/14 12:40:46;;;;;;;9.20;8.40;;;;;;;;;;5072990;28;20543;-76
2022/09/14 12:43:30;;;;;;;8.20;7.50;;;;;;;;;;5093081;28;20423;-76
2022/09/14 12:46:06;;;;;;;8.47;7.73;;;;;;;;;;5091992;28;20443;-76
2022/09/14 12:48:53;;;;;;;11.03;9.97;;;;;;;;;;5092075;28;20439;-75
2022/09/14 12:51:25;;;;;;;8.87;7.97;;;;;;;;;;5091817;28;20441;-76
2022/09/14 12:54:06;;;;;;;10.87;9.77;;;;;;;;;;5091051;28;20420;-76
2022/09/14 12:56:35;;;;;;;8.20;7.47;;;;;;;;;;5071341;28;20466;-76
2022/09/14 12:59:09;;;;;;;8.03;7.40;;;;;;;;;;5071328;28;20880;-76
2022/09/14 13:01:47;;;;;;;8.40;7.70;;;;;;;;;;5072602;28;20542;-76
2022/09/14 13:04:20;;;;;;;7.73;7.13;;;;;;;;;;5091432;28;20435;-76
2022/09/14 13:06:47;;;;;;;7.70;7.00;;;;;;;;;;5067769;28;20450;-76
2022/09/14 13:09:21;;;;;;;8.27;7.57;;;;;;;;;;5072634;28;20924;-75
2022/09/14 13:11:52;;;;;;;8.27;7.57;;;;;;;;;;5069749;28;20558;-76
2022/09/14 13:14:18;;;;;;;8.40;7.80;;;;;;;;;;5071178;28;20440;-76
2022/09/14 13:16:47;;;;;;;7.17;6.63;;;;;;;;;;5057614;28;20431;-76
2022/09/14 13:19:22;;;;;;;7.37;6.77;;;;;;;;;;5073979;28;20973;-76
2022/09/14 13:21:51;;;;;;;7.40;6.80;;;;;;;;;;5091044;28;20530;-76
2022/09/14 13:24:20;;;;;;;8.07;7.27;;;;;;;;;;5078995;28;20437;-76
2022/09/14 13:26:47;;;;;;;7.27;6.67;;;;;;;;;;5060504;28;20439;-76
2022/09/14 13:29:14;;;;;;;7.30;6.70;;;;;;;;;;5091249;28;20501;-76
2022/09/14 13:31:43;;;;;;;7.33;6.83;;;;;;;;;;5070924;28;20453;-76
2022/09/14 13:34:39;;;;;;;6.80;6.30;;;;;;;;;;5074079;28;21037;-76
2022/09/14 13:37:06;;;;;;;6.70;6.17;;;;;;;;;;5053750;28;20435;-75
2022/09/14 13:39:34;;;;;;;7.80;7.10;;;;;;;;;;5089910;28;20507;-76
2022/09/14 13:42:01;;;;;;;7.07;6.43;;;;;;;;;;5080737;28;20527;-76
2022/09/14 13:44:35;;;;;;;7.07;6.43;;;;;;;;;;5052143;28;20532;-76
2022/09/14 13:47:03;;;;;;;8.20;7.50;;;;;;;;;;5067417;28;20837;-76
2022/09/14 13:49:30;;;;;;;8.63;7.73;;;;;;;;;;5083939;28;20458;-76
2022/09/14 13:52:15;;;;;;;9.30;7.20;;;;;;;;;;5070505;28;20444;-76
2022/09/14 13:54:42;;;;;;;6.77;6.17;;;;;;;;;;5087665;28;20420;-76
2022/09/14 13:57:14;;;;;;;6.57;6.07;;;;;;;;;;5070463;28;20432;-76
2022/09/14 13:59:59;;;;;;;5.90;5.40;;;;;;;;;;5086697;28;20422;-76
2022/09/14 14:02:26;;;;;;;5.20;4.70;;;;;;;;;;5090540;28;20532;-76
2022/09/14 14:04:52;;;;;;;7.80;5.90;;;;;;;;;;5090545;28;20538;-76
2022/09/14 14:07:25;;;;;;;5.87;5.37;;;;;;;;;;5084749;28;20453;-76
2022/09/14 14:09:53;;;;;;;5.93;5.10;;;;;;;;;;5087192;28;21023;-76
2022/09/14 14:12:42;;;;;;;8.63;5.80;;;;;;;;;;5063698;28;20463;-76
2022/09/14 14:15:15;;;;;;;6.50;5.90;;;;;;;;;;5069064;28;20447;-75
2022/09/14 14:17:42;;;;;;;6.47;5.87;;;;;;;;;;5081371;28;20439;-75
2022/09/14 14:20:31;;;;;;;6.50;5.80;;;;;;;;;;5069229;28;20454;-76
2022/09/14 14:23:07;;;;;;;16.67;9.60;;;;;;;;;;5071494;28;20478;-75
2022/09/14 14:25:36;;;;;;;9.23;7.70;;;;;;;;;;5070500;28;20879;-76
2022/09/14 14:28:17;;;;;;;7.40;6.50;;;;;;;;;;5070158;28;20428;-75
2022/09/14 14:30:44;;;;;;;6.30;5.20;;;;;;;;;;5070299;28;20567;-75
2022/09/14 14:33:12;;;;;;;6.67;6.07;;;;;;;;;;5053946;28;20457;-75
2022/09/14 14:35:40;;;;;;;6.53;5.80;;;;;;;;;;5057492;28;20439;-76
2022/09/14 14:38:06;;;;;;;7.77;6.97;;;;;;;;;;5076062;28;20474;-76
2022/09/14 14:40:33;;;;;;;7.87;7.10;;;;;;;;;;5077485;28;20517;-76
2022/09/14 14:43:03;;;;;;;7.67;6.97;;;;;;;;;;5095517;28;20484;-76
2022/09/14 14:45:30;;;;;;;7.50;6.73;;;;;;;;;;5094355;28;20506;-76
2022/09/14 14:48:02;;;;;;;8.07;7.30;;;;;;;;;;5094356;28;20447;-76
2022/09/14 14:50:30;;;;;;;7.00;6.30;;;;;;;;;;5060075;28;20512;-75
2022/09/14 14:52:57;;;;;;;7.73;7.13;;;;;;;;;;5073534;28;20488;-75